Flight Track Log - Related Links

Times and Time Zones

All times are in EDT time to prevent confusion due to time zone crossing. See the RPA3468 flight status page for this flight to view local times or setup timezone preferences in your user account.

Time Position Orientation Groundspeed Altitude Reporting Facility
EDT Latitude Longitude Course Direction KTS MPH feet Rate Location/Type
Tue 07:58:59 PM 38.7714 -77.0322 81° East 164 189 2,800  Level Washington Center
Tue 07:59:00 PM 38.9888 -76.6337 67° East  Level FlightAware Approximate
Tue 07:59:59 PM 38.7783 -76.9656 82° East 135 155 4,700  Level Washington Center
Tue 08:00:00 PM 39.0402 -76.4994 63° Northeast  Level FlightAware Approximate
Tue 08:01:00 PM 39.0951 -76.3669 61° Northeast  Level FlightAware Approximate
Tue 08:01:00 PM 38.8375 -76.9003 41° Northeast 150 173 7,600  Level Washington Center
Tue 08:01:58 PM 38.8986 -76.8347 40° Northeast 225 259 10,600 2,593 Climbing Washington Center
Tue 08:02:00 PM 39.1353 -76.2314 38° Northeast  Level FlightAware Approximate
Tue 08:02:58 PM 38.9578 -76.7636 43° Northeast 258 297 12,700  Level Washington Center
Tue 08:03:00 PM 39.1626 -76.0913 83° East  Level FlightAware Approximate
Tue 08:03:59 PM 39.0086 -76.6708 55° Northeast 285 328 15,000  Level Washington Center
Tue 08:04:00 PM 39.1781 -75.9424 81° East  Level FlightAware Approximate
Tue 08:05:00 PM 39.0428 -76.5536 69° East 314 361 17,100  Level Washington Center
Tue 08:05:58 PM 39.0833 -76.4311 67° East 345 397 19,400 2,017 Climbing Washington Center
Tue 08:06:59 PM 39.1258 -76.3006 67° East 361 415 21,100 1,785 Climbing Washington Center
Tue 08:07:59 PM 39.1558 -76.1750 73° East 377 434 23,000 958 Climbing Washington Center
Tue 08:08:58 PM 39.1772 -76.0253 80° East 399 459 23,000 101 Level Washington Center
Tue 08:09:58 PM 39.2047 -75.8781 76° East 414 476 23,200 893 Climbing Washington Center
Tue 08:10:59 PM 39.2842 -75.7658 48° Northeast 408 470 24,800 1,426 Climbing Washington Center
Tue 08:12:00 PM 39.3656 -75.6561 46° Northeast 408 470 26,100 1,261 Climbing Washington Center
Tue 08:12:58 PM 39.4511 -75.5486 44° Northeast 414 476 27,300 1,160 Climbing Washington Center
Tue 08:13:59 PM 39.5406 -75.4328 45° Northeast 425 489 28,400 843 Climbing Washington Center
Tue 08:14:59 PM 39.6278 -75.3167 46° Northeast 438 504 29,000 298 Climbing Washington Center
Tue 08:16:00 PM 39.7150 -75.1950 47° Northeast 443 510 29,000  Level Washington Center
Tue 08:16:17 PM 39.7489 -75.1422 50° Northeast 543 625 29,000  Level New York Center
Tue 08:17:17 PM 39.8392 -75.0181 47° Northeast 511 588 29,000  Level New York Center
Tue 08:18:14 PM 39.9311 -74.8883 47° Northeast 487 560 29,000  Level New York Center
Tue 08:19:17 PM 40.0258 -74.8072 33° Northeast 473 544 29,000  Level New York Center
Tue 08:20:15 PM 40.1483 -74.7600 16° North 447 514 29,000  Level New York Center
Tue 08:21:16 PM 40.2686 -74.7153 16° North 442 509 29,000  Level New York Center
Tue 08:22:16 PM 40.3889 -74.6703 16° North 442 509 29,000  Level New York Center
Tue 08:23:16 PM 40.5089 -74.6281 15° North 442 509 29,000  Level New York Center
Tue 08:24:14 PM 40.6269 -74.5856 15° North 442 509 29,000  Level New York Center
Tue 08:25:15 PM 40.7431 -74.5425 16° North 442 509 29,000  Level New York Center
Tue 08:26:16 PM 40.8611 -74.4997 15° North 442 509 29,000  Level New York Center
Tue 08:28:05 PM 41.0700 -74.4281 15° North 466 536 29,000  Level Boston Center
Tue 08:29:06 PM 41.2000 -74.3850 14° North 446 513 29,000  Level Boston Center
Tue 08:30:06 PM 41.3300 -74.3308 17° North 441 507 29,000  Level Boston Center
Tue 08:31:06 PM 41.4389 -74.2953 14° North 441 507 29,000  Level Boston Center
Tue 08:32:06 PM 41.5564 -74.2517 16° North 436 502 29,000  Level Boston Center
Tue 08:33:06 PM 41.6739 -74.2078 16° North 436 502 29,000  Level Boston Center
Tue 08:34:06 PM 41.7994 -74.1639 15° North 431 496 29,000  Level Boston Center
Tue 08:35:06 PM 41.9189 -74.1197 15° North 431 496 29,000  Level Boston Center
Tue 08:36:06 PM 42.0342 -74.0753 16° North 431 496 29,000  Level Boston Center
Tue 08:37:06 PM 42.1517 -74.0336 15° North 431 496 29,000  Level Boston Center
Tue 08:38:06 PM 42.2689 -73.9889 16° North 436 502 29,000  Level Boston Center
Tue 08:39:06 PM 42.3864 -73.9439 16° North 436 502 29,000  Level Boston Center
Tue 08:40:06 PM 42.5036 -73.9017 15° North 436 502 29,000  Level Boston Center
Tue 08:41:06 PM 42.6167 -73.8564 16° North 436 502 29,000  Level Boston Center
Tue 08:42:06 PM 42.7033 -73.7650 38° Northeast 426 490 29,000  Level Boston Center
Tue 08:43:06 PM 42.7942 -73.6483 43° Northeast 431 496 29,000  Level Boston Center
Tue 08:44:06 PM 42.8478 -73.4936 65° Northeast 425 489 29,000  Level Boston Center
Tue 08:45:06 PM 42.9053 -73.3358 64° Northeast 441 507 29,000  Level Boston Center
Tue 08:46:06 PM 42.9567 -73.1747 66° East 446 513 29,000 -300 Level Boston Center
Tue 08:47:06 PM 42.9931 -72.9881 75° East 456 525 28,400 -750 Descending Boston Center
Tue 08:48:06 PM 43.0250 -72.8292 75° East 451 519 27,500 -900 Descending Boston Center
Tue 08:49:06 PM 43.0567 -72.6675 75° East 441 507 26,600 -900 Descending Boston Center
Tue 08:50:06 PM 43.0964 -72.5111 71° East 436 502 25,700 -857 Descending Boston Center
Tue 08:51:05 PM 43.1214 -72.3861 75° East 436 502 24,900 -850 Descending Boston Center
Tue 08:52:06 PM 43.1525 -72.2208 75° East 424 488 24,000 -446 Descending Boston Center
Tue 08:53:06 PM 43.2253 -72.0953 51° Northeast 404 465 24,000  Level Boston Center
Tue 08:54:06 PM 43.2978 -71.9750 50° Northeast 404 465 24,000  Level Boston Center
Tue 08:55:06 PM 43.3722 -71.8544 50° Northeast 404 465 24,000  Level Boston Center
Tue 08:56:06 PM 43.4569 -71.7508 42° Northeast 404 465 24,000  Level Boston Center
Tue 08:57:06 PM 43.5544 -71.6867 25° Northeast 392 451 24,000  Level Boston Center
Tue 08:58:06 PM 43.6542 -71.6250 24° Northeast 386 444 24,000  Level Boston Center
Tue 08:59:06 PM 43.7536 -71.5633 24° Northeast 387 445 24,000  Level Boston Center
Tue 09:00:06 PM 43.8575 -71.5158 18° North 387 445 24,000 -150 Level Boston Center
Tue 09:01:06 PM 43.9703 -71.5372 352° North 378 435 23,700 -650 Descending Boston Center
Tue 09:02:06 PM 44.0561 -71.5967 334° Northwest 329 379 22,700 -950 Descending Boston Center
Tue 09:03:06 PM 44.1006 -71.7144 298° West 308 354 21,800 -1,200 Descending Boston Center
Tue 09:04:06 PM 44.1325 -71.8239 292° West 308 354 20,300 -1,700 Descending Boston Center
Tue 09:05:06 PM 44.1581 -71.9192 291° West 298 343 18,400 -1,900 Descending Boston Center
Tue 09:06:06 PM 44.1917 -72.0172 296° West 298 343 16,500 -2,100 Descending Boston Center
Tue 09:07:06 PM 44.2317 -72.1186 299° West 282 325 14,200 -2,100 Descending Boston Center
Tue 09:08:06 PM 44.2736 -72.2139 302° West 282 325 12,300 -1,850 Descending Boston Center
Tue 09:09:06 PM 44.3156 -72.3036 303° West 282 325 10,500 -1,600 Descending Boston Center
Tue 09:10:06 PM 44.3572 -72.3936 303° West 282 325 9,100 -1,350 Descending Boston Center
Tue 09:11:06 PM 44.4008 -72.4719 308° West 272 313 7,800 -1,050 Descending Boston Center
Tue 09:12:06 PM 44.4489 -72.5478 312° West 261 300 7,000 -650 Descending Boston Center
Tue 09:13:06 PM 44.4903 -72.6206 309° West 255 293 6,500 -450 Descending Boston Center
Tue 09:14:06 PM 44.5319 -72.6933 309° West 249 287 6,100 -200 Descending Boston Center
Tue 09:15:06 PM 44.5714 -72.7664 307° West 249 287 6,100  Level Boston Center
Tue 09:16:06 PM 44.6086 -72.8425 305° West 242 278 6,100  Level Boston Center
Tue 09:17:06 PM 44.6458 -72.9186 305° West 242 278 6,100 -50 Level Boston Center
Tue 09:18:06 PM 44.6661 -73.0006 289° West 237 273 6,000 -1,000 Descending Boston Center
Tue 09:19:06 PM 44.6719 -73.0911 275° West 231 266 4,100 -1,650 Descending Boston Center
Tue 09:20:06 PM 44.6486 -73.1869 251° West 236 272 2,700 -900 Descending Boston Center
Tue 09:21:06 PM 44.6022 -73.2564 227° Southwest 236 272 2,300 -400 Descending Boston Center

Login

Don't have an account? Register now (free) for customized features, flight alerts, and more!